sensor_id;sensor_type;location;lat;lon;timestamp;pressure;altitude;pressure_sealevel;temperature;humidity
63399;BME280;49533;-34.520;150.798;2023-07-08T00:01:15;100127.38;;;15.67;40.64
63399;BME280;49533;-34.520;150.798;2023-07-08T00:03:42;100127.88;;;15.69;40.40
63399;BME280;49533;-34.520;150.798;2023-07-08T00:06:20;100130.81;;;15.76;39.96
63399;BME280;49533;-34.520;150.798;2023-07-08T00:08:48;100108.63;;;15.81;39.48
63399;BME280;49533;-34.520;150.798;2023-07-08T00:11:16;100108.09;;;15.76;39.19
63399;BME280;49533;-34.520;150.798;2023-07-08T00:13:44;100043.56;;;15.62;39.42
63399;BME280;49533;-34.520;150.798;2023-07-08T00:16:13;100107.41;;;15.95;39.15
63399;BME280;49533;-34.520;150.798;2023-07-08T00:18:40;100085.59;;;15.98;39.05
63399;BME280;49533;-34.520;150.798;2023-07-08T00:21:11;100043.31;;;15.68;39.17
63399;BME280;49533;-34.520;150.798;2023-07-08T00:23:45;100078.34;;;16.06;39.07
63399;BME280;49533;-34.520;150.798;2023-07-08T00:26:22;100054.81;;;15.89;38.74
63399;BME280;49533;-34.520;150.798;2023-07-08T00:28:50;100053.47;;;16.15;38.80
63399;BME280;49533;-34.520;150.798;2023-07-08T00:31:17;100070.81;;;16.19;38.33
63399;BME280;49533;-34.520;150.798;2023-07-08T00:33:50;100068.50;;;16.21;38.26
63399;BME280;49533;-34.520;150.798;2023-07-08T00:36:19;100053.66;;;16.22;38.29
63399;BME280;49533;-34.520;150.798;2023-07-08T00:38:46;100062.03;;;16.29;38.02
63399;BME280;49533;-34.520;150.798;2023-07-08T00:41:26;100064.06;;;16.32;38.11
63399;BME280;49533;-34.520;150.798;2023-07-08T00:43:56;100089.97;;;16.35;37.90
63399;BME280;49533;-34.520;150.798;2023-07-08T00:46:48;100048.13;;;16.38;37.81
63399;BME280;49533;-34.520;150.798;2023-07-08T00:49:37;99999.66;;;16.06;37.73
63399;BME280;49533;-34.520;150.798;2023-07-08T00:52:19;100029.03;;;16.41;37.73
63399;BME280;49533;-34.520;150.798;2023-07-08T00:54:50;100031.84;;;16.45;37.74
63399;BME280;49533;-34.520;150.798;2023-07-08T00:57:17;99951.78;;;16.00;37.69
63399;BME280;49533;-34.520;150.798;2023-07-08T00:59:55;100025.28;;;16.49;37.88
63399;BME280;49533;-34.520;150.798;2023-07-08T01:02:25;99981.31;;;16.26;37.63
63399;BME280;49533;-34.520;150.798;2023-07-08T01:05:06;99986.16;;;16.52;37.21
63399;BME280;49533;-34.520;150.798;2023-07-08T01:07:38;99976.78;;;16.53;36.88
63399;BME280;49533;-34.520;150.798;2023-07-08T01:10:12;99978.38;;;16.55;37.17
63399;BME280;49533;-34.520;150.798;2023-07-08T01:12:45;99988.97;;;16.56;36.92
63399;BME280;49533;-34.520;150.798;2023-07-08T01:15:15;99978.44;;;16.58;36.92
63399;BME280;49533;-34.520;150.798;2023-07-08T01:17:43;99943.88;;;16.53;36.95
63399;BME280;49533;-34.520;150.798;2023-07-08T01:20:11;99917.47;;;16.65;35.98
63399;BME280;49533;-34.520;150.798;2023-07-08T01:22:42;99922.22;;;16.68;36.05
63399;BME280;49533;-34.520;150.798;2023-07-08T01:25:10;99860.19;;;16.40;36.30
63399;BME280;49533;-34.520;150.798;2023-07-08T01:27:40;99909.78;;;16.74;35.72
63399;BME280;49533;-34.520;150.798;2023-07-08T01:30:10;99860.75;;;16.49;35.77
63399;BME280;49533;-34.520;150.798;2023-07-08T01:32:40;99878.56;;;16.79;35.46
63399;BME280;49533;-34.520;150.798;2023-07-08T01:35:10;99851.19;;;16.63;35.44
63399;BME280;49533;-34.520;150.798;2023-07-08T01:37:44;99843.38;;;16.84;35.44
63399;BME280;49533;-34.520;150.798;2023-07-08T01:40:36;99798.03;;;16.48;35.76
63399;BME280;49533;-34.520;150.798;2023-07-08T01:43:04;99856.72;;;16.86;35.99
63399;BME280;49533;-34.520;150.798;2023-07-08T01:45:35;99798.53;;;16.53;36.19
63399;BME280;49533;-34.520;150.798;2023-07-08T01:48:07;99824.47;;;16.79;36.26
63399;BME280;49533;-34.520;150.798;2023-07-08T01:50:45;99809.19;;;16.78;36.09
63399;BME280;49533;-34.520;150.798;2023-07-08T01:53:29;99796.03;;;16.87;36.28
63399;BME280;49533;-34.520;150.798;2023-07-08T01:55:56;99745.47;;;16.42;36.00
63399;BME280;49533;-34.520;150.798;2023-07-08T01:58:24;99810.13;;;16.89;35.93
63399;BME280;49533;-34.520;150.798;2023-07-08T02:00:51;99748.50;;;16.60;35.79
63399;BME280;49533;-34.520;150.798;2023-07-08T02:03:18;99732.06;;;16.60;36.00
63399;BME280;49533;-34.520;150.798;2023-07-08T02:05:45;99733.28;;;16.63;35.67
63399;BME280;49533;-34.520;150.798;2023-07-08T02:08:13;99684.22;;;16.58;35.25
63399;BME280;49533;-34.520;150.798;2023-07-08T02:10:42;99724.84;;;16.75;35.13
63399;BME280;49533;-34.520;150.798;2023-07-08T02:13:09;99745.41;;;16.85;35.09
63399;BME280;49533;-34.520;150.798;2023-07-08T02:15:36;99744.72;;;16.91;35.37
63399;BME280;49533;-34.520;150.798;2023-07-08T02:18:03;99757.38;;;17.00;35.21
63399;BME280;49533;-34.520;150.798;2023-07-08T02:20:31;99688.00;;;16.76;34.95
63399;BME280;49533;-34.520;150.798;2023-07-08T02:22:58;99741.34;;;17.02;35.13
63399;BME280;49533;-34.520;150.798;2023-07-08T02:25:25;99718.75;;;16.85;35.27
63399;BME280;49533;-34.520;150.798;2023-07-08T02:27:52;99718.13;;;16.95;34.92
63399;BME280;49533;-34.520;150.798;2023-07-08T02:30:24;99728.09;;;17.07;35.00
63399;BME280;49533;-34.520;150.798;2023-07-08T02:32:51;99711.25;;;17.09;34.91
63399;BME280;49533;-34.520;150.798;2023-07-08T02:35:27;99617.75;;;16.68;35.14
63399;BME280;49533;-34.520;150.798;2023-07-08T02:37:55;99661.19;;;16.89;34.67
63399;BME280;49533;-34.520;150.798;2023-07-08T02:40:24;99713.25;;;17.12;34.71
63399;BME280;49533;-34.520;150.798;2023-07-08T02:42:52;99689.34;;;17.12;35.04
63399;BME280;49533;-34.520;150.798;2023-07-08T02:45:19;99692.97;;;16.90;35.04
63399;BME280;49533;-34.520;150.798;2023-07-08T02:47:46;99681.19;;;17.16;34.95
63399;BME280;49533;-34.520;150.798;2023-07-08T02:50:13;99642.06;;;16.92;35.25
63399;BME280;49533;-34.520;150.798;2023-07-08T02:52:40;99692.97;;;17.20;34.88
63399;BME280;49533;-34.520;150.798;2023-07-08T02:55:08;99612.91;;;16.84;35.04
63399;BME280;49533;-34.520;150.798;2023-07-08T02:57:36;99636.94;;;16.91;34.82
63399;BME280;49533;-34.520;150.798;2023-07-08T03:00:03;99704.06;;;17.27;35.00
63399;BME280;49533;-34.520;150.798;2023-07-08T03:02:31;99677.38;;;17.28;34.93
63399;BME280;49533;-34.520;150.798;2023-07-08T03:04:58;99634.22;;;16.94;35.00
63399;BME280;49533;-34.520;150.798;2023-07-08T03:07:30;99643.41;;;17.06;34.82
63399;BME280;49533;-34.520;150.798;2023-07-08T03:09:57;99713.16;;;17.31;34.97
63399;BME280;49533;-34.520;150.798;2023-07-08T03:12:25;99646.72;;;17.22;35.14
63399;BME280;49533;-34.520;150.798;2023-07-08T03:14:52;99672.66;;;17.25;35.38
63399;BME280;49533;-34.520;150.798;2023-07-08T03:17:19;99661.41;;;17.33;35.25
63399;BME280;49533;-34.520;150.798;2023-07-08T03:19:47;99552.22;;;16.59;35.07
63399;BME280;49533;-34.520;150.798;2023-07-08T03:22:14;99662.53;;;17.29;35.27
63399;BME280;49533;-34.520;150.798;2023-07-08T03:24:41;99675.16;;;17.37;35.47
63399;BME280;49533;-34.520;150.798;2023-07-08T03:27:13;99616.44;;;17.15;35.63
63399;BME280;49533;-34.520;150.798;2023-07-08T03:29:41;99669.31;;;17.38;35.74
63399;BME280;49533;-34.520;150.798;2023-07-08T03:32:11;99627.53;;;17.22;35.85
63399;BME280;49533;-34.520;150.798;2023-07-08T03:34:39;99681.09;;;17.43;35.89
63399;BME280;49533;-34.520;150.798;2023-07-08T03:37:08;99659.56;;;17.45;35.98
63399;BME280;49533;-34.520;150.798;2023-07-08T03:39:35;99663.88;;;17.46;36.06
63399;BME280;49533;-34.520;150.798;2023-07-08T03:42:04;99646.50;;;17.34;35.70
63399;BME280;49533;-34.520;150.798;2023-07-08T03:44:32;99630.88;;;17.38;36.00
63399;BME280;49533;-34.520;150.798;2023-07-08T03:46:59;99671.75;;;17.47;35.82
63399;BME280;49533;-34.520;150.798;2023-07-08T03:49:28;99704.34;;;17.49;36.02
63399;BME280;49533;-34.520;150.798;2023-07-08T03:51:55;99641.56;;;17.51;36.11
63399;BME280;49533;-34.520;150.798;2023-07-08T03:54:25;99694.94;;;17.50;36.03
63399;BME280;49533;-34.520;150.798;2023-07-08T03:56:52;99642.97;;;17.34;35.83
63399;BME280;49533;-34.520;150.798;2023-07-08T03:59:20;99678.09;;;17.51;35.98
63399;BME280;49533;-34.520;150.798;2023-07-08T04:01:48;99677.06;;;17.33;35.71
63399;BME280;49533;-34.520;150.798;2023-07-08T04:04:16;99691.41;;;17.49;36.05
63399;BME280;49533;-34.520;150.798;2023-07-08T04:06:45;99672.38;;;17.33;36.15
63399;BME280;49533;-34.520;150.798;2023-07-08T04:09:12;99670.56;;;17.45;36.20
63399;BME280;49533;-34.520;150.798;2023-07-08T04:11:40;99671.53;;;17.29;36.29
63399;BME280;49533;-34.520;150.798;2023-07-08T04:14:09;99702.47;;;17.56;36.47
63399;BME280;49533;-34.520;150.798;2023-07-08T04:16:50;99687.56;;;17.57;36.63
63399;BME280;49533;-34.520;150.798;2023-07-08T04:19:19;99702.50;;;17.60;36.44
63399;BME280;49533;-34.520;150.798;2023-07-08T04:21:46;99707.22;;;17.59;36.64
63399;BME280;49533;-34.520;150.798;2023-07-08T04:24:15;99712.31;;;17.61;36.49
63399;BME280;49533;-34.520;150.798;2023-07-08T04:26:47;99720.88;;;17.52;36.45
63399;BME280;49533;-34.520;150.798;2023-07-08T04:29:16;99697.69;;;17.50;36.78
63399;BME280;49533;-34.520;150.798;2023-07-08T04:31:44;99655.28;;;17.17;36.66
63399;BME280;49533;-34.520;150.798;2023-07-08T04:34:13;99713.94;;;17.62;36.71
63399;BME280;49533;-34.520;150.798;2023-07-08T04:36:40;99735.91;;;17.62;36.83
63399;BME280;49533;-34.520;150.798;2023-07-08T04:39:08;99703.28;;;17.60;36.86
63399;BME280;49533;-34.520;150.798;2023-07-08T04:41:38;99704.41;;;17.56;36.72
63399;BME280;49533;-34.520;150.798;2023-07-08T04:44:07;99601.41;;;16.75;37.01
63399;BME280;49533;-34.520;150.798;2023-07-08T04:46:46;99727.22;;;17.60;36.93
63399;BME280;49533;-34.520;150.798;2023-07-08T04:49:17;99734.56;;;17.49;37.08
63399;BME280;49533;-34.520;150.798;2023-07-08T04:51:45;99726.81;;;17.58;37.18
63399;BME280;49533;-34.520;150.798;2023-07-08T04:54:12;99736.25;;;17.60;37.33
63399;BME280;49533;-34.520;150.798;2023-07-08T04:56:42;99744.88;;;17.59;37.17
63399;BME280;49533;-34.520;150.798;2023-07-08T04:59:13;99707.03;;;17.45;37.30
63399;BME280;49533;-34.520;150.798;2023-07-08T05:01:41;99736.22;;;17.57;37.23
63399;BME280;49533;-34.520;150.798;2023-07-08T05:04:12;99777.84;;;17.59;37.25
63399;BME280;49533;-34.520;150.798;2023-07-08T05:06:39;99754.28;;;17.58;37.30
63399;BME280;49533;-34.520;150.798;2023-07-08T05:09:07;99776.25;;;17.58;37.49
63399;BME280;49533;-34.520;150.798;2023-07-08T05:11:35;99765.69;;;17.60;37.73
63399;BME280;49533;-34.520;150.798;2023-07-08T05:14:03;99727.94;;;17.23;37.73
63399;BME280;49533;-34.520;150.798;2023-07-08T05:16:33;99776.69;;;17.60;37.61
63399;BME280;49533;-34.520;150.798;2023-07-08T05:19:02;99752.47;;;17.39;37.86
63399;BME280;49533;-34.520;150.798;2023-07-08T05:21:30;99808.44;;;17.57;38.16
63399;BME280;49533;-34.520;150.798;2023-07-08T05:24:01;99789.97;;;17.58;37.94
63399;BME280;49533;-34.520;150.798;2023-07-08T05:26:29;99807.63;;;17.57;38.15
63399;BME280;49533;-34.520;150.798;2023-07-08T05:28:56;99785.66;;;17.57;38.15
63399;BME280;49533;-34.520;150.798;2023-07-08T05:31:23;99811.53;;;17.56;37.96
63399;BME280;49533;-34.520;150.798;2023-07-08T05:33:51;99803.69;;;17.54;38.02
63399;BME280;49533;-34.520;150.798;2023-07-08T05:36:18;99778.41;;;17.42;37.98
63399;BME280;49533;-34.520;150.798;2023-07-08T05:38:46;99794.66;;;17.54;38.21
63399;BME280;49533;-34.520;150.798;2023-07-08T05:41:13;99790.94;;;17.43;38.27
63399;BME280;49533;-34.520;150.798;2023-07-08T05:43:40;99805.56;;;17.50;38.14
63399;BME280;49533;-34.520;150.798;2023-07-08T05:46:08;99802.47;;;17.52;38.09
63399;BME280;49533;-34.520;150.798;2023-07-08T05:48:36;99765.00;;;17.36;38.06
63399;BME280;49533;-34.520;150.798;2023-07-08T05:51:03;99756.31;;;17.34;38.15
63399;BME280;49533;-34.520;150.798;2023-07-08T05:53:31;99780.75;;;17.43;38.17
63399;BME280;49533;-34.520;150.798;2023-07-08T05:55:58;99767.19;;;17.27;38.25
63399;BME280;49533;-34.520;150.798;2023-07-08T05:58:25;99731.84;;;17.22;38.27
63399;BME280;49533;-34.520;150.798;2023-07-08T06:00:56;99784.63;;;17.38;38.54
63399;BME280;49533;-34.520;150.798;2023-07-08T06:03:24;99750.44;;;17.06;38.43
63399;BME280;49533;-34.520;150.798;2023-07-08T06:05:52;99781.47;;;17.36;38.43
63399;BME280;49533;-34.520;150.798;2023-07-08T06:08:20;99782.22;;;17.33;38.73
63399;BME280;49533;-34.520;150.798;2023-07-08T06:10:47;99768.81;;;17.28;38.57
63399;BME280;49533;-34.520;150.798;2023-07-08T06:13:15;99761.72;;;17.27;38.68
63399;BME280;49533;-34.520;150.798;2023-07-08T06:15:42;99767.94;;;17.24;38.91
63399;BME280;49533;-34.520;150.798;2023-07-08T06:18:09;99748.38;;;17.26;38.65
63399;BME280;49533;-34.520;150.798;2023-07-08T06:20:37;99761.66;;;17.24;38.75
63399;BME280;49533;-34.520;150.798;2023-07-08T06:23:04;99761.03;;;17.07;38.97
63399;BME280;49533;-34.520;150.798;2023-07-08T06:25:32;99751.06;;;17.22;39.01
63399;BME280;49533;-34.520;150.798;2023-07-08T06:27:59;99735.66;;;17.14;38.94
63399;BME280;49533;-34.520;150.798;2023-07-08T06:30:26;99760.47;;;17.21;39.02
63399;BME280;49533;-34.520;150.798;2023-07-08T06:32:54;99746.50;;;17.07;39.18
63399;BME280;49533;-34.520;150.798;2023-07-08T06:35:21;99764.25;;;17.13;39.10
63399;BME280;49533;-34.520;150.798;2023-07-08T06:37:48;99639.47;;;16.53;39.07
63399;BME280;49533;-34.520;150.798;2023-07-08T06:40:16;99685.00;;;16.81;39.12
63399;BME280;49533;-34.520;150.798;2023-07-08T06:42:45;99732.53;;;17.15;39.27
63399;BME280;49533;-34.520;150.798;2023-07-08T06:45:13;99693.97;;;16.78;39.42
63399;BME280;49533;-34.520;150.798;2023-07-08T06:47:40;99732.97;;;16.91;39.32
63399;BME280;49533;-34.520;150.798;2023-07-08T06:50:07;99752.78;;;17.07;40.08
63399;BME280;49533;-34.520;150.798;2023-07-08T06:52:35;99734.00;;;17.09;39.98
63399;BME280;49533;-34.520;150.798;2023-07-08T06:55:06;99639.72;;;16.41;39.72
63399;BME280;49533;-34.520;150.798;2023-07-08T06:57:34;99718.44;;;17.17;40.08
63399;BME280;49533;-34.520;150.798;2023-07-08T07:00:01;99779.59;;;17.17;39.99
63399;BME280;49533;-34.520;150.798;2023-07-08T07:02:29;99783.56;;;17.20;39.83
63399;BME280;49533;-34.520;150.798;2023-07-08T07:04:56;99766.31;;;17.20;39.84
63399;BME280;49533;-34.520;150.798;2023-07-08T07:07:24;99768.69;;;17.21;39.70
63399;BME280;49533;-34.520;150.798;2023-07-08T07:09:51;99766.72;;;17.22;39.75
63399;BME280;49533;-34.520;150.798;2023-07-08T07:12:18;99778.03;;;17.16;40.02
63399;BME280;49533;-34.520;150.798;2023-07-08T07:14:45;99784.97;;;16.84;39.89
63399;BME280;49533;-34.520;150.798;2023-07-08T07:17:12;99808.59;;;17.15;39.92
63399;BME280;49533;-34.520;150.798;2023-07-08T07:19:40;99806.75;;;17.23;40.24
63399;BME280;49533;-34.520;150.798;2023-07-08T07:22:07;99749.84;;;16.93;40.06
63399;BME280;49533;-34.520;150.798;2023-07-08T07:24:34;99789.47;;;17.22;40.11
63399;BME280;49533;-34.520;150.798;2023-07-08T07:27:01;99788.34;;;17.23;40.11
63399;BME280;49533;-34.520;150.798;2023-07-08T07:29:35;99789.91;;;17.24;40.34
63399;BME280;49533;-34.520;150.798;2023-07-08T07:32:05;99795.41;;;17.24;40.11
63399;BME280;49533;-34.520;150.798;2023-07-08T07:34:32;99740.28;;;16.83;40.07
63399;BME280;49533;-34.520;150.798;2023-07-08T07:36:59;99785.31;;;17.05;39.98
63399;BME280;49533;-34.520;150.798;2023-07-08T07:39:26;99773.06;;;16.99;40.06
63399;BME280;49533;-34.520;150.798;2023-07-08T07:41:55;99796.56;;;17.23;39.69
63399;BME280;49533;-34.520;150.798;2023-07-08T07:44:22;99797.72;;;17.22;39.85
63399;BME280;49533;-34.520;150.798;2023-07-08T07:46:52;99798.97;;;17.02;39.80
63399;BME280;49533;-34.520;150.798;2023-07-08T07:49:21;99796.94;;;17.22;39.78
63399;BME280;49533;-34.520;150.798;2023-07-08T07:51:48;99763.19;;;16.94;39.63
63399;BME280;49533;-34.520;150.798;2023-07-08T07:54:16;99778.47;;;17.19;39.53
63399;BME280;49533;-34.520;150.798;2023-07-08T07:56:43;99777.09;;;17.05;39.59
63399;BME280;49533;-34.520;150.798;2023-07-08T07:59:11;99801.94;;;17.16;39.34
63399;BME280;49533;-34.520;150.798;2023-07-08T08:01:38;99782.97;;;17.07;39.43
63399;BME280;49533;-34.520;150.798;2023-07-08T08:04:05;99797.19;;;17.13;39.56
63399;BME280;49533;-34.520;150.798;2023-07-08T08:06:34;99809.16;;;17.01;39.46
63399;BME280;49533;-34.520;150.798;2023-07-08T08:09:03;99816.78;;;17.11;39.51
63399;BME280;49533;-34.520;150.798;2023-07-08T08:11:30;99794.38;;;17.09;39.47
63399;BME280;49533;-34.520;150.798;2023-07-08T08:13:57;99770.47;;;16.83;39.44
63399;BME280;49533;-34.520;150.798;2023-07-08T08:16:26;99759.22;;;16.69;39.61
63399;BME280;49533;-34.520;150.798;2023-07-08T08:18:53;99825.63;;;17.01;39.51
63399;BME280;49533;-34.520;150.798;2023-07-08T08:21:20;99816.59;;;17.01;39.66
63399;BME280;49533;-34.520;150.798;2023-07-08T08:23:48;99814.06;;;16.88;39.72
63399;BME280;49533;-34.520;150.798;2023-07-08T08:26:15;99818.88;;;16.95;39.60
63399;BME280;49533;-34.520;150.798;2023-07-08T08:28:42;99841.31;;;17.01;39.86
63399;BME280;49533;-34.520;150.798;2023-07-08T08:31:09;99850.69;;;17.00;39.64
63399;BME280;49533;-34.520;150.798;2023-07-08T08:33:37;99821.50;;;16.88;39.74
63399;BME280;49533;-34.520;150.798;2023-07-08T08:36:04;99849.84;;;16.95;39.95
63399;BME280;49533;-34.520;150.798;2023-07-08T08:38:31;99828.25;;;16.94;40.01
63399;BME280;49533;-34.520;150.798;2023-07-08T08:41:02;99830.22;;;16.93;39.97
63399;BME280;49533;-34.520;150.798;2023-07-08T08:43:35;99812.34;;;16.80;40.31
63399;BME280;49533;-34.520;150.798;2023-07-08T08:49:14;99831.69;;;16.68;40.08
63399;BME280;49533;-34.520;150.798;2023-07-08T08:51:43;99775.97;;;16.41;40.06
63399;BME280;49533;-34.520;150.798;2023-07-08T08:54:11;99853.63;;;16.87;39.75
63399;BME280;49533;-34.520;150.798;2023-07-08T08:57:04;99881.63;;;16.77;39.67
63399;BME280;49533;-34.520;150.798;2023-07-08T08:59:53;99817.53;;;16.85;39.60
63399;BME280;49533;-34.520;150.798;2023-07-08T09:02:42;99860.56;;;16.81;39.51
63399;BME280;49533;-34.520;150.798;2023-07-08T09:05:13;99793.34;;;16.48;39.57
63399;BME280;49533;-34.520;150.798;2023-07-08T09:07:52;99823.19;;;16.53;39.45
63399;BME280;49533;-34.520;150.798;2023-07-08T09:10:39;99813.56;;;16.40;39.93
63399;BME280;49533;-34.520;150.798;2023-07-08T09:13:24;99865.88;;;16.74;39.67
63399;BME280;49533;-34.520;150.798;2023-07-08T09:15:59;99745.25;;;15.89;39.67
63399;BME280;49533;-34.520;150.798;2023-07-08T09:18:36;99867.78;;;16.70;39.67
63399;BME280;49533;-34.520;150.798;2023-07-08T09:21:16;99833.22;;;16.65;39.66
63399;BME280;49533;-34.520;150.798;2023-07-08T09:23:47;99855.59;;;16.67;39.75
63399;BME280;49533;-34.520;150.798;2023-07-08T09:26:22;99799.44;;;16.38;39.49
63399;BME280;49533;-34.520;150.798;2023-07-08T09:28:51;99850.41;;;16.62;39.68
63399;BME280;49533;-34.520;150.798;2023-07-08T09:31:27;99756.06;;;16.01;39.43
63399;BME280;49533;-34.520;150.798;2023-07-08T09:34:08;99855.47;;;16.60;39.61
63399;BME280;49533;-34.520;150.798;2023-07-08T09:36:40;99883.63;;;16.57;39.41
63399;BME280;49533;-34.520;150.798;2023-07-08T09:39:15;99872.56;;;16.53;39.70
63399;BME280;49533;-34.520;150.798;2023-07-08T09:41:45;99840.28;;;16.24;39.76
63399;BME280;49533;-34.520;150.798;2023-07-08T09:44:21;99887.88;;;16.35;39.76
63399;BME280;49533;-34.520;150.798;2023-07-08T09:46:53;99833.63;;;16.25;39.96
63399;BME280;49533;-34.520;150.798;2023-07-08T09:49:29;99906.16;;;16.47;40.12
63399;BME280;49533;-34.520;150.798;2023-07-08T09:51:58;99886.16;;;16.46;39.82
63399;BME280;49533;-34.520;150.798;2023-07-08T09:54:26;99907.56;;;16.41;39.79
63399;BME280;49533;-34.520;150.798;2023-07-08T09:57:00;99918.41;;;16.34;40.22
63399;BME280;49533;-34.520;150.798;2023-07-08T09:59:32;99914.56;;;16.38;40.11
63399;BME280;49533;-34.520;150.798;2023-07-08T10:02:25;99894.06;;;16.13;40.09
63399;BME280;49533;-34.520;150.798;2023-07-08T10:04:55;99958.81;;;16.37;39.95
63399;BME280;49533;-34.520;150.798;2023-07-08T10:07:23;99940.47;;;16.21;40.18
63399;BME280;49533;-34.520;150.798;2023-07-08T10:09:52;99962.97;;;16.30;40.08
63399;BME280;49533;-34.520;150.798;2023-07-08T10:12:23;99955.13;;;16.29;40.10
63399;BME280;49533;-34.520;150.798;2023-07-08T10:14:54;99968.03;;;16.28;39.91
63399;BME280;49533;-34.520;150.798;2023-07-08T10:17:23;99926.47;;;16.07;39.99
63399;BME280;49533;-34.520;150.798;2023-07-08T10:19:50;99923.66;;;16.03;39.94
63399;BME280;49533;-34.520;150.798;2023-07-08T10:22:29;99975.31;;;16.21;39.91
63399;BME280;49533;-34.520;150.798;2023-07-08T10:25:21;99945.88;;;16.18;40.02
63399;BME280;49533;-34.520;150.798;2023-07-08T10:28:07;99763.28;;;15.00;39.50
63399;BME280;49533;-34.520;150.798;2023-07-08T10:31:04;99883.69;;;15.83;39.50
63399;BME280;49533;-34.520;150.798;2023-07-08T10:33:51;99943.13;;;16.18;39.45
63399;BME280;49533;-34.520;150.798;2023-07-08T10:36:30;99942.78;;;16.19;39.33
63399;BME280;49533;-34.520;150.798;2023-07-08T10:42:20;99978.41;;;16.19;38.96
63399;BME280;49533;-34.520;150.798;2023-07-08T10:45:06;99941.88;;;15.96;39.07
63399;BME280;49533;-34.520;150.798;2023-07-08T10:47:50;99901.81;;;15.56;38.76
63399;BME280;49533;-34.520;150.798;2023-07-08T10:53:35;99986.41;;;16.08;38.73
63399;BME280;49533;-34.520;150.798;2023-07-08T10:56:28;99938.47;;;16.18;38.51
63399;BME280;49533;-34.520;150.798;2023-07-08T10:59:16;99993.19;;;16.15;38.69
63399;BME280;49533;-34.520;150.798;2023-07-08T11:02:18;99970.13;;;16.16;38.79
63399;BME280;49533;-34.520;150.798;2023-07-08T11:05:10;99923.94;;;15.98;38.97
63399;BME280;49533;-34.520;150.798;2023-07-08T11:07:51;99941.78;;;15.92;39.07
63399;BME280;49533;-34.520;150.798;2023-07-08T11:10:25;99906.84;;;15.70;39.12
63399;BME280;49533;-34.520;150.798;2023-07-08T11:13:01;99930.44;;;16.09;39.16
63399;BME280;49533;-34.520;150.798;2023-07-08T11:15:42;99931.38;;;15.82;39.18
63399;BME280;49533;-34.520;150.798;2023-07-08T11:18:38;99956.25;;;16.08;39.30
63399;BME280;49533;-34.520;150.798;2023-07-08T11:21:10;99942.06;;;15.87;38.97
63399;BME280;49533;-34.520;150.798;2023-07-08T11:23:47;99965.59;;;16.07;39.29
63399;BME280;49533;-34.520;150.798;2023-07-08T11:26:23;99957.75;;;16.06;39.32
63399;BME280;49533;-34.520;150.798;2023-07-08T11:28:56;99928.75;;;16.05;39.39
63399;BME280;49533;-34.520;150.798;2023-07-08T11:31:26;99924.50;;;16.07;39.62
63399;BME280;49533;-34.520;150.798;2023-07-08T11:33:54;99931.59;;;16.08;39.63
63399;BME280;49533;-34.520;150.798;2023-07-08T11:36:23;99872.06;;;15.90;39.66
63399;BME280;49533;-34.520;150.798;2023-07-08T11:38:55;99921.69;;;16.04;39.75
63399;BME280;49533;-34.520;150.798;2023-07-08T11:41:27;99930.81;;;15.92;39.81
63399;BME280;49533;-34.520;150.798;2023-07-08T11:43:59;99931.16;;;16.06;39.96
63399;BME280;49533;-34.520;150.798;2023-07-08T11:46:28;99858.59;;;15.81;39.98
63399;BME280;49533;-34.520;150.798;2023-07-08T11:49:03;99808.34;;;15.73;40.03
63399;BME280;49533;-34.520;150.798;2023-07-08T11:51:35;99886.41;;;16.02;40.13
63399;BME280;49533;-34.520;150.798;2023-07-08T11:54:27;99849.66;;;16.03;40.13
63399;BME280;49533;-34.520;150.798;2023-07-08T11:57:03;99808.13;;;16.01;40.03
63399;BME280;49533;-34.520;150.798;2023-07-08T11:59:36;99822.63;;;16.02;40.02
63399;BME280;49533;-34.520;150.798;2023-07-08T12:02:14;99837.91;;;16.03;39.85
63399;BME280;49533;-34.520;150.798;2023-07-08T12:05:04;99830.06;;;16.01;39.93
63399;BME280;49533;-34.520;150.798;2023-07-08T12:07:45;99776.78;;;15.63;39.91
63399;BME280;49533;-34.520;150.798;2023-07-08T12:10:26;99864.09;;;16.00;39.74
63399;BME280;49533;-34.520;150.798;2023-07-08T12:12:54;99772.38;;;15.39;39.75
63399;BME280;49533;-34.520;150.798;2023-07-08T12:15:27;99847.19;;;15.79;40.00
63399;BME280;49533;-34.520;150.798;2023-07-08T12:18:01;99848.34;;;15.62;39.99
63399;BME280;49533;-34.520;150.798;2023-07-08T12:20:34;99837.81;;;15.64;39.98
63399;BME280;49533;-34.520;150.798;2023-07-08T12:23:03;99899.47;;;15.90;40.17
63399;BME280;49533;-34.520;150.798;2023-07-08T12:25:35;99893.19;;;15.89;40.30
63399;BME280;49533;-34.520;150.798;2023-07-08T12:28:03;99954.63;;;15.88;40.21
63399;BME280;49533;-34.520;150.798;2023-07-08T12:30:32;99919.00;;;15.88;40.38
63399;BME280;49533;-34.520;150.798;2023-07-08T12:33:01;99874.13;;;15.77;40.36
63399;BME280;49533;-34.520;150.798;2023-07-08T12:35:32;99902.56;;;15.88;40.34
63399;BME280;49533;-34.520;150.798;2023-07-08T12:38:09;99857.72;;;15.61;40.48
63399;BME280;49533;-34.520;150.798;2023-07-08T12:40:40;99818.25;;;15.46;40.41
63399;BME280;49533;-34.520;150.798;2023-07-08T12:43:10;99860.53;;;15.64;40.37
63399;BME280;49533;-34.520;150.798;2023-07-08T12:45:37;99900.97;;;15.87;40.42
63399;BME280;49533;-34.520;150.798;2023-07-08T12:48:05;99887.47;;;15.78;40.42
63399;BME280;49533;-34.520;150.798;2023-07-08T12:50:32;99843.31;;;15.64;40.51
63399;BME280;49533;-34.520;150.798;2023-07-08T12:53:00;99911.97;;;15.55;40.52
63399;BME280;49533;-34.520;150.798;2023-07-08T12:55:31;99924.94;;;15.58;40.73
63399;BME280;49533;-34.520;150.798;2023-07-08T12:57:59;99844.81;;;14.94;40.94
63399;BME280;49533;-34.520;150.798;2023-07-08T13:00:32;99952.94;;;15.68;40.89